Waynesville, NC

3:25 PM EST on February 28, 2015 (GMT -0500)
WNC Landscaping- J.Creek | Change Station
CLOSE
Current Station
Personal Weather Station
Location: Waynesville, NC
Elevation: 2792 ft
Nearby Weather Stations

Elev 2792 ft 35.55 °N, 83.03 °W | Updated 1 second ago

Mostly Cloudy
Mostly Cloudy
50.0 °F
Feels Like 50.0 °F
N
0.0
Wind Variable Wind from North
Gusts 0.0 mph

Today
High -- | Low -- °F
--% Chance of Precip.
Yesterday
High -- | Low -- °F
Precip. -- in
7:03 AM 6:26 PM
Waxing Gibbous, 80% visible
Pressure 30.59 in
Visibility 10.0 miles
Clouds Mostly Cloudy 11000 ft
Dew Point 6 °F
Humidity 16%
Rainfall 0.00 in
Snow Depth Not available.
UV 2 out of 12
Pollen 4.10 out of 12
Air Quality Not available.
Flu Activity Not available.
METAR KAVL 281954Z 16006KT 10SM BKN110 03/M08 A3054 RMK AO2 SLP359 T00281078

More Conditions Fewer Conditions

Pressure 30.59 in
Visibility 10.0 miles
Clouds Mostly Cloudy 11000 ft
Dew Point 6 °F
Humidity 16%
Rainfall 0.00 in
Snow Depth Not available.
UV 2 out of 12
Pollen 4.10 out of 12
Air Quality Not available.
Flu Activity Not available.
METAR KAVL 281954Z 16006KT 10SM BKN110 03/M08 A3054 RMK AO2 SLP359 T00281078

More Conditions Fewer Conditions

10-Day Weather Forecast

Almanac

Astronomy

Feb. 28, 2015 Rise Set
Actual Time
Civil Twilight
Nautical Twilight
Astronomical Twilight
Moon
Length of Visible Light
Length of Day
Tomorrow will be .
, % of the Moon is Illuminated

Today's Extremes

State Highs State Lows

Community

WunderPhotos

Upload Photos

1,801,135 photos uploaded!

WunderBlogs® & News

Nearby

Air Quality

  Air Quality AQ Index Pollutant
Not available.

Snow Depth

Station Depth Elevation

Earthquake Activity

City Distance Mag. Time & Date
Minimum magnitude displayed is 2.5.

Coastal Water Temperatures

Place Temperature

Nearby Weather Stations